createdAt,value
2019-03-24T00:01:59.887Z,132.23
2019-03-24T00:04:30.080Z,131.53
2019-03-24T00:07:00.278Z,131.90
2019-03-24T00:09:30.475Z,130.20
2019-03-24T00:12:00.739Z,133.30
2019-03-24T00:14:30.933Z,137.47
2019-03-24T00:17:01.117Z,141.93
2019-03-24T00:19:31.300Z,138.57
2019-03-24T00:22:01.475Z,132.03
2019-03-24T00:24:31.655Z,133.93
2019-03-24T00:27:01.852Z,134.70
2019-03-24T00:29:32.051Z,139.23
2019-03-24T00:32:03.478Z,137.67
2019-03-24T00:34:33.671Z,141.27
2019-03-24T00:37:03.923Z,138.07
2019-03-24T00:39:34.113Z,139.67
2019-03-24T00:42:04.290Z,138.57
2019-03-24T00:44:34.502Z,136.37
2019-03-24T00:47:04.696Z,131.90
2019-03-24T00:49:34.978Z,132.20
2019-03-24T00:52:05.345Z,129.50
2019-03-24T00:54:35.611Z,129.83
2019-03-24T00:57:05.891Z,129.37
2019-03-24T00:59:36.087Z,128.87
2019-03-24T01:02:06.410Z,127.47
2019-03-24T01:04:36.608Z,131.87
2019-03-24T01:07:06.938Z,127.23
2019-03-24T01:09:38.098Z,128.60
2019-03-24T01:12:08.430Z,129.87
2019-03-24T01:14:38.614Z,127.83
2019-03-24T01:17:08.874Z,128.33
2019-03-24T01:19:39.128Z,126.83
2019-03-24T01:22:09.286Z,130.50
2019-03-24T01:24:39.470Z,129.00
2019-03-24T01:27:09.643Z,128.07
2019-03-24T01:29:39.834Z,129.40
2019-03-24T01:32:12.343Z,127.33
2019-03-24T01:34:42.534Z,130.07
2019-03-24T01:37:12.895Z,131.03
2019-03-24T01:39:43.165Z,129.17
2019-03-24T01:42:13.318Z,129.73
2019-03-24T01:44:43.534Z,128.33
2019-03-24T01:47:13.884Z,130.27
2019-03-24T01:49:44.075Z,129.97
2019-03-24T01:52:14.247Z,127.27
2019-03-24T01:54:44.442Z,129.00
2019-03-24T01:57:14.630Z,130.93
2019-03-24T01:59:45.007Z,127.93
2019-03-24T02:02:17.335Z,128.50
2019-03-24T02:04:47.522Z,130.90
2019-03-24T02:07:20.482Z,130.53
2019-03-24T02:09:50.662Z,132.37
2019-03-24T02:12:20.919Z,128.97
2019-03-24T02:14:51.110Z,131.13
2019-03-24T02:17:21.292Z,132.23
2019-03-24T02:19:51.482Z,131.33
2019-03-24T02:22:21.663Z,134.20
2019-03-24T02:24:51.851Z,137.10
2019-03-24T02:27:22.030Z,137.20
2019-03-24T02:29:52.235Z,138.77
2019-03-24T02:32:22.508Z,139.23
2019-03-24T02:34:52.696Z,133.23
2019-03-24T02:37:22.889Z,136.73
2019-03-24T02:39:53.072Z,137.83
2019-03-24T02:42:23.255Z,138.73
2019-03-24T02:44:53.516Z,138.07
2019-03-24T02:47:23.687Z,139.33
2019-03-24T02:49:53.871Z,134.87
2019-03-24T02:52:24.046Z,137.30
2019-03-24T02:54:54.232Z,137.23
2019-03-24T02:57:24.415Z,141.23
2019-03-24T02:59:54.672Z,141.17
2019-03-24T03:02:24.852Z,131.60
2019-03-24T03:04:55.048Z,131.70
2019-03-24T03:07:25.226Z,141.20
2019-03-24T03:09:55.448Z,138.23
2019-03-24T03:12:25.624Z,133.13
2019-03-24T03:14:55.810Z,129.77
2019-03-24T03:17:25.991Z,128.30
2019-03-24T03:19:56.180Z,128.57
2019-03-24T03:22:26.346Z,127.67
2019-03-24T03:24:56.596Z,130.33
2019-03-24T03:27:26.831Z,127.53
2019-03-24T03:29:57.027Z,129.63
2019-03-24T03:32:27.207Z,129.87
2019-03-24T03:34:57.393Z,128.73
2019-03-24T03:37:27.565Z,128.83
2019-03-24T03:39:58.517Z,126.87
2019-03-24T03:42:28.975Z,126.37
2019-03-24T03:44:59.156Z,132.70
2019-03-24T03:47:29.341Z,130.13
2019-03-24T03:49:59.515Z,129.97
2019-03-24T03:52:29.695Z,137.60
2019-03-24T03:54:59.872Z,129.07
2019-03-24T03:57:30.051Z,128.07
2019-03-24T04:00:01.450Z,132.97
2019-03-24T04:02:31.614Z,127.27
2019-03-24T04:05:01.792Z,128.57
2019-03-24T04:07:31.969Z,129.33
2019-03-24T04:10:02.216Z,126.67
2019-03-24T04:12:32.396Z,130.93
2019-03-24T04:15:02.650Z,127.30
2019-03-24T04:17:32.880Z,127.40
2019-03-24T04:20:03.159Z,127.50
2019-03-24T04:22:33.348Z,127.37
2019-03-24T04:25:03.684Z,131.00
2019-03-24T04:27:33.861Z,132.97
2019-03-24T04:30:05.832Z,133.77
2019-03-24T04:32:36.014Z,131.40
2019-03-24T04:35:06.799Z,133.67
2019-03-24T04:37:37.059Z,132.40
2019-03-24T04:40:07.779Z,135.20
2019-03-24T04:42:37.963Z,141.87
2019-03-24T04:45:09.191Z,138.77
2019-03-24T04:47:39.391Z,127.87
2019-03-24T04:50:10.554Z,131.77
2019-03-24T04:52:40.803Z,129.97
2019-03-24T04:55:11.457Z,130.77
2019-03-24T04:57:41.684Z,130.10
2019-03-24T05:00:13.234Z,128.93
2019-03-24T05:02:43.407Z,127.70
2019-03-24T05:05:13.680Z,132.90
2019-03-24T05:07:44.002Z,128.33
2019-03-24T05:10:25.535Z,129.83
2019-03-24T05:12:55.727Z,126.70
2019-03-24T05:15:26.022Z,128.73
2019-03-24T05:17:57.178Z,128.93
2019-03-24T05:20:27.371Z,131.90
2019-03-24T05:22:57.568Z,129.67
2019-03-24T05:25:27.750Z,128.57
2019-03-24T05:27:58.269Z,130.83
2019-03-24T05:30:28.455Z,125.53
2019-03-24T05:32:58.685Z,127.43
2019-03-24T05:35:29.778Z,127.70
2019-03-24T05:37:59.962Z,128.93
2019-03-24T05:40:30.170Z,127.90
2019-03-24T05:43:00.358Z,131.87
2019-03-24T05:45:30.635Z,139.63
2019-03-24T05:48:00.947Z,128.53
2019-03-24T05:50:31.163Z,133.23
2019-03-24T05:53:01.488Z,142.87
2019-03-24T05:55:31.666Z,132.83
2019-03-24T05:58:01.846Z,135.00
2019-03-24T06:00:32.022Z,137.30
2019-03-24T06:03:02.239Z,139.83
2019-03-24T06:05:32.451Z,132.13
2019-03-24T06:08:02.627Z,137.13
2019-03-24T06:10:32.806Z,135.93
2019-03-24T06:13:03.156Z,132.67
2019-03-24T06:15:33.343Z,144.57
2019-03-24T06:18:03.599Z,132.50
2019-03-24T06:20:33.791Z,141.70
2019-03-24T06:23:04.042Z,137.23
2019-03-24T06:25:35.010Z,136.50
2019-03-24T06:28:05.409Z,139.77
2019-03-24T06:30:35.598Z,137.23
2019-03-24T06:33:05.850Z,131.70
2019-03-24T06:35:36.115Z,138.63
2019-03-24T06:38:06.378Z,131.53
2019-03-24T06:40:36.856Z,137.13
2019-03-24T06:43:07.026Z,134.83
2019-03-24T06:45:37.219Z,133.37
2019-03-24T06:52:26.030Z,135.80
2019-03-24T06:54:56.213Z,131.03
2019-03-24T06:57:32.855Z,132.07
2019-03-24T07:00:03.110Z,131.03
2019-03-24T07:02:33.367Z,131.23
2019-03-24T07:05:03.902Z,134.33
2019-03-24T07:07:34.082Z,131.50
2019-03-24T07:10:04.873Z,133.87
2019-03-24T07:12:35.047Z,133.03
2019-03-24T07:15:05.582Z,134.77
2019-03-24T07:17:37.625Z,135.00
2019-03-24T07:20:08.450Z,132.10
2019-03-24T07:22:38.626Z,132.40
2019-03-24T07:25:09.566Z,137.13
2019-03-24T07:27:39.757Z,133.50
2019-03-24T07:30:10.921Z,134.73
2019-03-24T07:32:41.106Z,132.10
2019-03-24T07:35:11.375Z,128.30
2019-03-24T07:37:41.564Z,129.57
2019-03-24T07:40:12.029Z,130.33
2019-03-24T07:42:42.203Z,128.50
2019-03-24T07:45:12.947Z,136.77
2019-03-24T07:47:43.124Z,130.37
2019-03-24T07:50:13.694Z,127.17
2019-03-24T07:52:43.881Z,127.93
2019-03-24T07:55:14.214Z,129.23
2019-03-24T07:57:44.470Z,130.13
2019-03-24T08:00:17.440Z,131.10
2019-03-24T08:02:52.822Z,131.00
2019-03-24T08:05:23.034Z,133.63
2019-03-24T08:07:53.234Z,126.73
2019-03-24T08:10:23.495Z,130.60
2019-03-24T08:12:53.729Z,132.80
2019-03-24T08:15:24.061Z,130.83
2019-03-24T08:17:54.250Z,130.20
2019-03-24T08:20:24.447Z,129.77
2019-03-24T08:22:54.630Z,134.13
2019-03-24T08:25:25.203Z,136.10
2019-03-24T08:28:06.975Z,131.97
2019-03-24T08:30:37.691Z,134.43
2019-03-24T08:33:07.966Z,131.73
2019-03-24T08:35:38.150Z,137.60
2019-03-24T08:38:08.340Z,141.90
2019-03-24T08:40:38.611Z,132.27
2019-03-24T08:43:08.850Z,135.03
2019-03-24T08:45:40.006Z,137.60
2019-03-24T08:48:10.182Z,135.80
2019-03-24T08:50:40.367Z,137.03
2019-03-24T08:53:10.553Z,135.27
2019-03-24T08:55:40.779Z,136.47
2019-03-24T08:58:10.957Z,137.60
2019-03-24T09:00:41.153Z,135.03
2019-03-24T09:03:11.412Z,141.80
2019-03-24T09:05:41.637Z,141.00
2019-03-24T09:08:11.854Z,137.77
2019-03-24T09:10:42.072Z,140.07
2019-03-24T09:13:12.243Z,135.07
2019-03-24T09:15:43.292Z,140.17
2019-03-24T09:18:14.771Z,141.70
2019-03-24T09:20:45.030Z,137.13
2019-03-24T09:23:15.213Z,139.53
2019-03-24T09:25:45.394Z,137.43
2019-03-24T09:28:15.646Z,135.80
2019-03-24T09:30:45.830Z,134.27
2019-03-24T09:33:17.006Z,138.93
2019-03-24T09:35:47.200Z,138.90
2019-03-24T09:38:17.383Z,143.60
2019-03-24T09:40:47.567Z,138.27
2019-03-24T09:43:17.742Z,136.03
2019-03-24T09:45:47.939Z,136.90
2019-03-24T09:48:18.122Z,139.03
2019-03-24T09:50:48.423Z,141.00
2019-03-24T09:53:18.647Z,140.80
2019-03-24T09:55:48.810Z,139.37
2019-03-24T09:58:18.989Z,137.23
2019-03-24T10:00:49.188Z,136.33
2019-03-24T10:03:19.352Z,143.43
2019-03-24T10:05:49.558Z,138.57
2019-03-24T10:08:19.823Z,136.77
2019-03-24T10:10:50.022Z,137.03
2019-03-24T10:13:20.331Z,136.77
2019-03-24T10:15:50.559Z,140.27
2019-03-24T10:18:20.735Z,138.53
2019-03-24T10:20:50.938Z,136.77
2019-03-24T10:23:21.191Z,135.63
2019-03-24T10:25:51.384Z,140.40
2019-03-24T10:28:21.575Z,139.00
2019-03-24T10:30:51.768Z,136.70
2019-03-24T10:33:21.942Z,135.57
2019-03-24T10:35:52.127Z,136.90
2019-03-24T10:38:22.308Z,136.57
2019-03-24T10:40:52.499Z,139.03
2019-03-24T10:43:22.682Z,138.37
2019-03-24T10:45:52.862Z,134.97
2019-03-24T10:48:33.162Z,134.67
2019-03-24T10:50:54.931Z,134.17
2019-03-24T10:53:25.103Z,134.90
2019-03-24T10:55:55.394Z,136.27
2019-03-24T10:58:25.664Z,137.47
2019-03-24T11:00:56.023Z,141.43
2019-03-24T11:03:26.198Z,134.87
2019-03-24T11:05:56.387Z,133.77
2019-03-24T11:08:26.703Z,139.07
2019-03-24T11:10:56.965Z,131.90
2019-03-24T11:13:27.139Z,133.00
2019-03-24T11:15:59.548Z,132.03
2019-03-24T11:18:29.387Z,134.87
2019-03-24T11:20:59.642Z,134.20
2019-03-24T11:23:29.833Z,132.97
2019-03-24T11:26:00.026Z,136.37
2019-03-24T11:28:30.243Z,131.37
2019-03-24T11:31:00.902Z,130.97
2019-03-24T11:33:31.086Z,133.67
2019-03-24T11:36:01.280Z,136.37
2019-03-24T11:38:31.459Z,131.53
2019-03-24T11:41:01.678Z,132.40
2019-03-24T11:43:32.823Z,134.30
2019-03-24T11:46:03.166Z,132.83
2019-03-24T11:48:33.360Z,132.47
2019-03-24T11:51:03.623Z,131.00
2019-03-24T11:53:33.807Z,133.97
2019-03-24T11:56:04.071Z,133.83
2019-03-24T11:58:34.304Z,138.53
2019-03-24T12:01:04.692Z,133.77
2019-03-24T12:03:34.870Z,137.43
2019-03-24T12:06:13.932Z,132.73
2019-03-24T12:08:38.832Z,133.97
2019-03-24T12:11:09.204Z,134.20
2019-03-24T12:13:39.388Z,132.17
2019-03-24T12:16:09.589Z,134.33
2019-03-24T12:18:39.763Z,132.37
2019-03-24T12:21:09.942Z,131.63
2019-03-24T12:23:40.134Z,134.20
2019-03-24T12:26:10.327Z,133.60
2019-03-24T12:28:40.504Z,136.97
2019-03-24T12:31:10.739Z,131.33
2019-03-24T12:33:40.907Z,132.03
2019-03-24T12:36:11.096Z,130.60
2019-03-24T12:38:41.270Z,132.00
2019-03-24T12:41:11.497Z,132.07
2019-03-24T12:43:41.720Z,133.50
2019-03-24T12:46:11.909Z,136.80
2019-03-24T12:48:42.081Z,133.10
2019-03-24T12:51:12.278Z,134.97
2019-03-24T12:53:42.459Z,135.93
2019-03-24T12:56:12.682Z,135.50
2019-03-24T12:58:42.914Z,143.00
2019-03-24T13:01:13.110Z,141.97
2019-03-24T13:03:43.286Z,143.77
2019-03-24T13:06:13.500Z,148.43
2019-03-24T13:08:43.670Z,143.03
2019-03-24T13:11:13.891Z,146.30
2019-03-24T13:13:44.075Z,142.23
2019-03-24T13:16:14.283Z,143.40
2019-03-24T13:18:44.623Z,138.10
2019-03-24T13:21:14.917Z,137.53
2019-03-24T13:23:45.070Z,132.27
2019-03-24T13:26:15.267Z,136.77
2019-03-24T13:28:45.439Z,134.77
2019-03-24T13:31:15.667Z,138.57
2019-03-24T13:33:47.007Z,133.67
2019-03-24T13:36:17.223Z,138.47
2019-03-24T13:38:47.395Z,143.43
2019-03-24T13:41:17.687Z,143.03
2019-03-24T13:43:47.877Z,141.47
2019-03-24T13:46:19.166Z,135.03
2019-03-24T13:48:49.357Z,134.00
2019-03-24T13:51:20.996Z,144.93
2019-03-24T13:53:51.175Z,142.67
2019-03-24T13:56:21.451Z,145.17
2019-03-24T13:58:56.910Z,142.40
2019-03-24T14:01:27.095Z,142.67
2019-03-24T14:03:57.347Z,136.83
2019-03-24T14:06:27.581Z,131.83
2019-03-24T14:08:57.755Z,131.80
2019-03-24T14:11:28.110Z,132.67
2019-03-24T14:13:58.291Z,133.70
2019-03-24T14:16:28.489Z,135.20
2019-03-24T14:18:58.662Z,135.17
2019-03-24T14:21:28.916Z,134.83
2019-03-24T14:23:59.107Z,137.73
2019-03-24T14:26:29.291Z,134.73
2019-03-24T14:28:59.467Z,133.47
2019-03-24T14:31:29.657Z,132.40
2019-03-24T14:33:59.830Z,135.80
2019-03-24T14:36:30.027Z,134.77
2019-03-24T14:39:00.215Z,142.20
2019-03-24T14:41:30.447Z,143.33
2019-03-24T14:44:00.623Z,136.83
2019-03-24T14:46:30.827Z,137.73
2019-03-24T14:49:01.095Z,147.33
2019-03-24T14:51:31.292Z,141.13
2019-03-24T14:54:01.530Z,140.43
2019-03-24T14:56:34.023Z,132.77
2019-03-24T14:59:03.632Z,132.33
2019-03-24T15:01:33.860Z,132.17
2019-03-24T15:04:04.092Z,129.30
2019-03-24T15:06:34.350Z,131.50
2019-03-24T15:09:06.107Z,132.57
2019-03-24T15:11:36.293Z,134.40
2019-03-24T15:14:06.558Z,131.97
2019-03-24T15:16:36.818Z,131.70
2019-03-24T15:19:07.019Z,132.27
2019-03-24T15:21:37.218Z,134.33
2019-03-24T15:24:07.414Z,132.10
2019-03-24T15:26:37.691Z,131.83
2019-03-24T15:29:07.875Z,132.83
2019-03-24T15:31:38.063Z,135.27
2019-03-24T15:34:08.249Z,130.73
2019-03-24T15:36:38.478Z,131.53
2019-03-24T15:39:09.602Z,132.07
2019-03-24T15:41:39.870Z,134.30
2019-03-24T15:44:10.042Z,129.80
2019-03-24T15:46:40.319Z,131.73
2019-03-24T15:49:10.494Z,131.90
2019-03-24T15:51:40.694Z,132.97
2019-03-24T15:54:13.293Z,132.77
2019-03-24T15:56:42.808Z,133.53
2019-03-24T15:59:12.985Z,136.77
2019-03-24T16:01:43.176Z,149.20
2019-03-24T16:04:13.355Z,141.43
2019-03-24T16:06:43.550Z,142.23
2019-03-24T16:09:13.755Z,139.47
2019-03-24T16:11:44.000Z,141.87
2019-03-24T16:14:14.378Z,139.70
2019-03-24T16:16:44.580Z,135.40
2019-03-24T16:19:14.767Z,144.33
2019-03-24T16:21:44.953Z,138.40
2019-03-24T16:24:15.251Z,143.17
2019-03-24T16:26:45.445Z,141.00
2019-03-24T16:29:15.624Z,141.10
2019-03-24T16:31:45.921Z,144.23
2019-03-24T16:34:16.180Z,140.07
2019-03-24T16:36:46.420Z,139.13
2019-03-24T16:39:16.591Z,140.87
2019-03-24T16:41:46.902Z,139.20
2019-03-24T16:44:17.084Z,133.37
2019-03-24T16:46:47.474Z,130.00
2019-03-24T16:49:17.658Z,136.03
2019-03-24T16:51:47.871Z,131.83
2019-03-24T16:54:18.059Z,129.30
2019-03-24T16:56:48.287Z,132.73
2019-03-24T16:59:18.464Z,130.67
2019-03-24T17:01:48.942Z,135.90
2019-03-24T17:04:19.119Z,128.03
2019-03-24T17:06:49.320Z,132.30
2019-03-24T17:09:19.517Z,128.57
2019-03-24T17:11:49.714Z,129.17
2019-03-24T17:14:19.924Z,129.77
2019-03-24T17:16:50.235Z,128.10
2019-03-24T17:19:20.419Z,128.37
2019-03-24T17:21:50.619Z,130.70
2019-03-24T17:24:20.833Z,128.67
2019-03-24T17:26:51.061Z,128.77
2019-03-24T17:29:21.238Z,129.43
2019-03-24T17:31:51.511Z,128.40
2019-03-24T17:34:21.705Z,128.03
2019-03-24T17:36:51.951Z,127.17
2019-03-24T17:39:22.146Z,131.50
2019-03-24T17:41:52.414Z,129.90
2019-03-24T17:44:22.590Z,128.17
2019-03-24T17:46:52.794Z,129.80
2019-03-24T17:49:22.974Z,129.40
2019-03-24T17:52:00.733Z,133.17
2019-03-24T17:54:25.046Z,130.60
2019-03-24T17:56:55.289Z,135.10
2019-03-24T17:59:25.535Z,129.43
2019-03-24T18:01:55.731Z,131.07
2019-03-24T18:04:25.908Z,133.13
2019-03-24T18:06:56.207Z,130.50
2019-03-24T18:09:26.378Z,130.60
2019-03-24T18:11:56.742Z,130.07
2019-03-24T18:14:26.938Z,133.60
2019-03-24T18:16:57.130Z,131.80
2019-03-24T18:19:27.319Z,135.77
2019-03-24T18:21:57.514Z,130.20
2019-03-24T18:24:27.702Z,133.63
2019-03-24T18:26:57.894Z,134.90
2019-03-24T18:29:28.094Z,134.70
2019-03-24T18:31:59.426Z,131.53
2019-03-24T18:34:30.607Z,132.57
2019-03-24T18:37:00.799Z,130.77
2019-03-24T18:39:30.975Z,131.70
2019-03-24T18:42:01.170Z,132.93
2019-03-24T18:44:31.347Z,135.67
2019-03-24T18:47:02.502Z,133.00
2019-03-24T18:49:32.702Z,135.70
2019-03-24T18:52:02.906Z,136.20
2019-03-24T18:54:33.159Z,140.47
2019-03-24T18:57:03.591Z,140.30
2019-03-24T18:59:33.882Z,139.20
2019-03-24T19:02:04.159Z,139.03
2019-03-24T19:04:34.374Z,138.87
2019-03-24T19:07:04.663Z,143.27
2019-03-24T19:09:35.883Z,143.80
2019-03-24T19:12:06.078Z,132.30
2019-03-24T19:14:37.311Z,143.97
2019-03-24T19:17:09.963Z,139.07
2019-03-24T19:19:39.412Z,140.33
2019-03-24T19:22:09.591Z,142.03
2019-03-24T19:24:39.775Z,142.57
2019-03-24T19:27:10.059Z,137.63
2019-03-24T19:29:40.307Z,140.70
2019-03-24T19:32:10.570Z,141.73
2019-03-24T19:34:41.818Z,138.17
2019-03-24T19:37:12.498Z,138.93
2019-03-24T19:39:42.763Z,133.90
2019-03-24T19:42:12.966Z,139.70
2019-03-24T19:44:43.162Z,140.00
2019-03-24T19:47:13.368Z,138.93
2019-03-24T19:49:43.645Z,140.47
2019-03-24T19:52:13.847Z,131.33
2019-03-24T19:54:44.029Z,133.90
2019-03-24T19:57:14.311Z,133.10
2019-03-24T19:59:44.496Z,133.93
2019-03-24T20:02:14.697Z,139.77
2019-03-24T20:04:45.118Z,138.13
2019-03-24T20:07:15.348Z,139.77
2019-03-24T20:09:45.522Z,134.03
2019-03-24T20:12:15.960Z,132.17
2019-03-24T20:14:46.290Z,140.70
2019-03-24T20:17:16.486Z,136.53
2019-03-24T20:19:46.663Z,137.13
2019-03-24T20:22:16.895Z,138.27
2019-03-24T20:24:47.098Z,136.77
2019-03-24T20:27:17.286Z,133.60
2019-03-24T20:29:47.470Z,137.10
2019-03-24T20:32:17.659Z,138.90
2019-03-24T20:34:47.851Z,137.07
2019-03-24T20:37:18.051Z,138.20
2019-03-24T20:39:48.245Z,137.23
2019-03-24T20:42:18.440Z,137.17
2019-03-24T20:44:48.614Z,137.83
2019-03-24T20:47:19.955Z,139.10
2019-03-24T20:49:51.212Z,139.57
2019-03-24T20:52:21.411Z,138.40
2019-03-24T20:54:51.596Z,136.33
2019-03-24T20:57:21.788Z,137.43
2019-03-24T20:59:52.272Z,137.33
2019-03-24T21:02:23.639Z,130.70
2019-03-24T21:04:53.835Z,131.17
2019-03-24T21:07:24.043Z,130.03
2019-03-24T21:09:54.481Z,131.63
2019-03-24T21:12:24.682Z,132.70
2019-03-24T21:14:54.867Z,133.90
2019-03-24T21:17:25.063Z,130.57
2019-03-24T21:19:55.235Z,132.37
2019-03-24T21:22:25.431Z,130.07
2019-03-24T21:24:55.620Z,130.37
2019-03-24T21:27:25.902Z,130.70
2019-03-24T21:29:56.070Z,129.27
2019-03-24T21:32:26.260Z,129.63
2019-03-24T21:34:56.443Z,131.00
2019-03-24T21:37:26.631Z,128.87
2019-03-24T21:39:56.890Z,128.93
2019-03-24T21:42:27.095Z,130.03
2019-03-24T21:44:57.266Z,129.00
2019-03-24T21:47:27.456Z,131.63
2019-03-24T21:49:57.637Z,131.30
2019-03-24T21:52:27.823Z,128.43
2019-03-24T21:54:58.003Z,129.83
2019-03-24T21:57:28.195Z,128.90
2019-03-24T21:59:58.375Z,128.63
2019-03-24T22:02:28.560Z,130.40
2019-03-24T22:04:58.749Z,129.23
2019-03-24T22:07:28.945Z,130.73
2019-03-24T22:09:59.131Z,129.60
2019-03-24T22:12:29.310Z,129.37
2019-03-24T22:14:59.494Z,129.70
2019-03-24T22:17:29.683Z,127.90
2019-03-24T22:19:59.870Z,127.90
2019-03-24T22:22:30.249Z,130.13
2019-03-24T22:25:00.422Z,128.80
2019-03-24T22:27:30.618Z,130.23
2019-03-24T22:30:00.811Z,127.80
2019-03-24T22:32:31.008Z,129.07
2019-03-24T22:35:01.191Z,132.57
2019-03-24T22:37:32.606Z,127.53
2019-03-24T22:40:02.860Z,129.33
2019-03-24T22:42:33.045Z,128.27
2019-03-24T22:45:03.326Z,130.07
2019-03-24T22:47:33.599Z,128.20
2019-03-24T22:50:04.170Z,128.37
2019-03-24T22:52:34.448Z,132.40
2019-03-24T22:55:05.174Z,127.43
2019-03-24T22:57:35.438Z,130.00
2019-03-24T23:00:10.535Z,130.23
2019-03-24T23:02:42.477Z,127.63
2019-03-24T23:05:12.821Z,128.43
2019-03-24T23:07:43.106Z,127.20
2019-03-24T23:10:13.547Z,127.97
2019-03-24T23:12:43.735Z,126.87
2019-03-24T23:15:13.996Z,131.33
2019-03-24T23:17:44.179Z,129.33
2019-03-24T23:20:14.522Z,128.70
2019-03-24T23:22:44.714Z,131.53
2019-03-24T23:25:14.997Z,127.97
2019-03-24T23:27:45.179Z,130.87
2019-03-24T23:30:16.179Z,128.07
2019-03-24T23:32:46.434Z,128.80
2019-03-24T23:35:16.803Z,127.63
2019-03-24T23:37:46.986Z,128.07
2019-03-24T23:40:17.533Z,131.47
2019-03-24T23:42:47.802Z,129.30
2019-03-24T23:45:18.122Z,129.20
2019-03-24T23:47:48.312Z,128.03
2019-03-24T23:50:18.853Z,127.67
2019-03-24T23:52:49.208Z,128.90
2019-03-24T23:55:19.504Z,128.03
2019-03-24T23:57:49.821Z,129.77
